Terminal Aerodrome Forecast
Issued by NWS Sioux Falls, SD

Home | Current Version | Previous Version | Text Only | Print | Product List | Glossary Off
Versions: 1 2 3 4 5 6 7 8 9 10 11 12 13 14

108
FTUS43 KFSD 210946 AAA
TAFFSD
TAF AMD
KFSD 210946Z 2110/2206 02012KT P6SM OVC120
     FM220200 05008KT P6SM BKN120=

USA.gov is the U.S. government's official web portal to all federal, state and local government web resources and services.